KLSV/LSV METAR and TAF weather

Enter ICAO airport designator
Station Type Date Time Source
KLSV METAR 2019/12/07 06:58 UTC NOAA

KLSV 070658Z AUTO 00000KT 10SM OVC090 10/10 A3018 RMK AO2 SLP216 T01010101 $


Station Type Date Time Source
KLSV Decoded METAR 2019/12/07 06:58 UTC NOAA

Nellis Air Force Base, NV, United States (KLSV) 36-14N 115-02W
Dec 07, 2019 - 01:58 AM EST / 2019.12.07 0658 UTC
Wind: Calm:0
Visibility: 10 mile(s):0
Sky conditions: overcast
Temperature: 50.2 F (10.1 C)
Dew Point: 50.2 F (10.1 C)
Relative Humidity: 100%
Pressure (altimeter): 30.18 in. Hg (1022 hPa)
ob: KLSV 070658Z AUTO 00000KT 10SM OVC090 10/10 A3018 RMK AO2 SLP216 T01010101
cycle: 7

Station Type Date Time Source
KLSV TAF 2019/12/07 07:09 UTC NOAA

TAF TAF KLSV 070700Z 0707/0813 VRB06KT 9999 BKN120 QNH3018INS
BECMG 0714/0715 VRB06KT 9999 BKN120 QNH3005INS
BECMG 0804/0805 19010KT 9999 BKN080 620809 QNH2999INS
TEMPO 0806/0809 20015G25KT 520009
BECMG 0808/0809 18015G25KT 9999 OVC060 620609 520009 QNH2995INS TX16/0722Z TN08/0713Z

Example: see airport list